sensor_id;sensor_type;location;lat;lon;timestamp;P1;durP1;ratioP1;P2;durP2;ratioP2
15202;SDS011;7702;51.046;5.184;2023-02-18T00:02:14;17.23;;;12.70;;
15202;SDS011;7702;51.046;5.184;2023-02-18T00:04:39;16.83;;;12.93;;
15202;SDS011;7702;51.046;5.184;2023-02-18T00:07:05;17.40;;;13.43;;
15202;SDS011;7702;51.046;5.184;2023-02-18T00:09:31;15.93;;;13.20;;
15202;SDS011;7702;51.046;5.184;2023-02-18T00:11:57;17.83;;;13.80;;
15202;SDS011;7702;51.046;5.184;2023-02-18T00:14:22;17.17;;;13.33;;
15202;SDS011;7702;51.046;5.184;2023-02-18T00:16:48;18.90;;;14.13;;
15202;SDS011;7702;51.046;5.184;2023-02-18T00:19:14;18.13;;;14.20;;
15202;SDS011;7702;51.046;5.184;2023-02-18T00:21:42;17.17;;;13.93;;
15202;SDS011;7702;51.046;5.184;2023-02-18T00:24:08;17.33;;;13.27;;
15202;SDS011;7702;51.046;5.184;2023-02-18T00:26:35;18.30;;;14.27;;
15202;SDS011;7702;51.046;5.184;2023-02-18T00:29:02;20.03;;;14.17;;
15202;SDS011;7702;51.046;5.184;2023-02-18T00:31:29;19.13;;;13.80;;
15202;SDS011;7702;51.046;5.184;2023-02-18T00:33:57;17.97;;;14.53;;
15202;SDS011;7702;51.046;5.184;2023-02-18T00:36:23;21.03;;;14.53;;
15202;SDS011;7702;51.046;5.184;2023-02-18T00:38:57;16.87;;;13.83;;
15202;SDS011;7702;51.046;5.184;2023-02-18T00:41:24;17.87;;;13.73;;
15202;SDS011;7702;51.046;5.184;2023-02-18T00:43:51;17.90;;;13.43;;
15202;SDS011;7702;51.046;5.184;2023-02-18T00:46:17;18.77;;;13.87;;
15202;SDS011;7702;51.046;5.184;2023-02-18T00:48:43;19.63;;;14.37;;
15202;SDS011;7702;51.046;5.184;2023-02-18T00:51:09;21.33;;;14.53;;
15202;SDS011;7702;51.046;5.184;2023-02-18T00:53:35;21.67;;;14.23;;
15202;SDS011;7702;51.046;5.184;2023-02-18T00:56:01;19.13;;;13.30;;
15202;SDS011;7702;51.046;5.184;2023-02-18T00:58:27;19.30;;;13.67;;
15202;SDS011;7702;51.046;5.184;2023-02-18T01:00:54;18.50;;;13.17;;
15202;SDS011;7702;51.046;5.184;2023-02-18T01:03:20;17.83;;;13.00;;
15202;SDS011;7702;51.046;5.184;2023-02-18T01:05:47;20.43;;;13.60;;
15202;SDS011;7702;51.046;5.184;2023-02-18T01:08:15;21.07;;;13.63;;
15202;SDS011;7702;51.046;5.184;2023-02-18T01:10:42;17.00;;;12.80;;
15202;SDS011;7702;51.046;5.184;2023-02-18T01:13:10;14.00;;;11.20;;
15202;SDS011;7702;51.046;5.184;2023-02-18T01:15:38;15.00;;;11.70;;
15202;SDS011;7702;51.046;5.184;2023-02-18T01:18:05;17.20;;;12.50;;
15202;SDS011;7702;51.046;5.184;2023-02-18T01:20:32;16.70;;;12.03;;
15202;SDS011;7702;51.046;5.184;2023-02-18T01:22:58;19.60;;;12.07;;
15202;SDS011;7702;51.046;5.184;2023-02-18T01:25:24;14.00;;;11.57;;
15202;SDS011;7702;51.046;5.184;2023-02-18T01:27:49;13.73;;;10.83;;
15202;SDS011;7702;51.046;5.184;2023-02-18T01:30:16;14.30;;;11.37;;
15202;SDS011;7702;51.046;5.184;2023-02-18T01:32:42;13.30;;;10.23;;
15202;SDS011;7702;51.046;5.184;2023-02-18T01:35:09;15.13;;;10.47;;
15202;SDS011;7702;51.046;5.184;2023-02-18T01:37:37;12.70;;;9.57;;
15202;SDS011;7702;51.046;5.184;2023-02-18T01:40:04;13.07;;;9.57;;
15202;SDS011;7702;51.046;5.184;2023-02-18T01:42:30;12.50;;;9.33;;
15202;SDS011;7702;51.046;5.184;2023-02-18T01:47:59;12.63;;;9.73;;
15202;SDS011;7702;51.046;5.184;2023-02-18T01:50:30;11.23;;;8.80;;
15202;SDS011;7702;51.046;5.184;2023-02-18T01:52:57;13.17;;;9.07;;
15202;SDS011;7702;51.046;5.184;2023-02-18T01:55:24;12.87;;;8.63;;
15202;SDS011;7702;51.046;5.184;2023-02-18T01:57:50;11.07;;;8.07;;
15202;SDS011;7702;51.046;5.184;2023-02-18T02:00:17;9.77;;;7.23;;
15202;SDS011;7702;51.046;5.184;2023-02-18T02:02:48;9.70;;;7.03;;
15202;SDS011;7702;51.046;5.184;2023-02-18T02:05:16;9.17;;;6.87;;
15202;SDS011;7702;51.046;5.184;2023-02-18T02:07:44;10.40;;;7.57;;
15202;SDS011;7702;51.046;5.184;2023-02-18T02:10:14;9.00;;;6.77;;
15202;SDS011;7702;51.046;5.184;2023-02-18T02:39:32;5.67;;;4.10;;
15202;SDS011;7702;51.046;5.184;2023-02-18T02:50:20;3.10;;;2.70;;
15202;SDS011;7702;51.046;5.184;2023-02-18T02:53:01;4.47;;;2.97;;
15202;SDS011;7702;51.046;5.184;2023-02-18T02:55:34;2.77;;;2.43;;
15202;SDS011;7702;51.046;5.184;2023-02-18T02:58:00;3.07;;;2.67;;
15202;SDS011;7702;51.046;5.184;2023-02-18T03:11:21;2.57;;;1.83;;
15202;SDS011;7702;51.046;5.184;2023-02-18T03:16:47;2.93;;;2.60;;
15202;SDS011;7702;51.046;5.184;2023-02-18T03:19:35;3.43;;;2.83;;
15202;SDS011;7702;51.046;5.184;2023-02-18T03:22:10;2.80;;;2.30;;
15202;SDS011;7702;51.046;5.184;2023-02-18T03:24:43;2.50;;;2.30;;
15202;SDS011;7702;51.046;5.184;2023-02-18T03:27:31;3.00;;;2.27;;
15202;SDS011;7702;51.046;5.184;2023-02-18T03:30:23;3.00;;;2.30;;
15202;SDS011;7702;51.046;5.184;2023-02-18T03:32:50;2.93;;;2.47;;
15202;SDS011;7702;51.046;5.184;2023-02-18T03:35:20;3.30;;;1.80;;
15202;SDS011;7702;51.046;5.184;2023-02-18T03:37:53;3.47;;;2.13;;
15202;SDS011;7702;51.046;5.184;2023-02-18T03:40:27;2.43;;;2.10;;
15202;SDS011;7702;51.046;5.184;2023-02-18T03:42:55;2.90;;;2.47;;
15202;SDS011;7702;51.046;5.184;2023-02-18T03:45:25;3.77;;;2.30;;
15202;SDS011;7702;51.046;5.184;2023-02-18T03:47:51;2.77;;;2.40;;
15202;SDS011;7702;51.046;5.184;2023-02-18T03:50:18;3.87;;;2.30;;
15202;SDS011;7702;51.046;5.184;2023-02-18T03:52:44;5.33;;;2.50;;
15202;SDS011;7702;51.046;5.184;2023-02-18T03:55:09;2.40;;;2.00;;
15202;SDS011;7702;51.046;5.184;2023-02-18T03:57:35;2.20;;;2.00;;
15202;SDS011;7702;51.046;5.184;2023-02-18T04:00:01;2.63;;;2.23;;
15202;SDS011;7702;51.046;5.184;2023-02-18T04:02:29;2.57;;;2.10;;
15202;SDS011;7702;51.046;5.184;2023-02-18T04:04:55;2.30;;;1.87;;
15202;SDS011;7702;51.046;5.184;2023-02-18T04:07:21;2.53;;;2.33;;
15202;SDS011;7702;51.046;5.184;2023-02-18T04:09:46;2.03;;;1.83;;
15202;SDS011;7702;51.046;5.184;2023-02-18T04:12:12;2.57;;;2.20;;
15202;SDS011;7702;51.046;5.184;2023-02-18T04:14:38;2.40;;;1.90;;
15202;SDS011;7702;51.046;5.184;2023-02-18T04:17:03;2.53;;;2.10;;
15202;SDS011;7702;51.046;5.184;2023-02-18T04:19:29;3.10;;;2.30;;
15202;SDS011;7702;51.046;5.184;2023-02-18T04:21:54;3.53;;;2.13;;
15202;SDS011;7702;51.046;5.184;2023-02-18T04:24:20;4.40;;;2.53;;
15202;SDS011;7702;51.046;5.184;2023-02-18T04:26:46;3.17;;;2.67;;
15202;SDS011;7702;51.046;5.184;2023-02-18T04:29:12;3.40;;;2.20;;
15202;SDS011;7702;51.046;5.184;2023-02-18T04:31:38;3.83;;;2.73;;
15202;SDS011;7702;51.046;5.184;2023-02-18T04:34:04;3.93;;;2.17;;
15202;SDS011;7702;51.046;5.184;2023-02-18T04:36:30;4.70;;;2.30;;
15202;SDS011;7702;51.046;5.184;2023-02-18T04:38:55;4.20;;;2.80;;
15202;SDS011;7702;51.046;5.184;2023-02-18T04:41:21;2.87;;;2.40;;
15202;SDS011;7702;51.046;5.184;2023-02-18T04:43:47;3.40;;;2.80;;
15202;SDS011;7702;51.046;5.184;2023-02-18T04:46:13;4.13;;;2.93;;
15202;SDS011;7702;51.046;5.184;2023-02-18T04:48:38;3.00;;;2.70;;
15202;SDS011;7702;51.046;5.184;2023-02-18T04:51:04;4.80;;;2.90;;
15202;SDS011;7702;51.046;5.184;2023-02-18T04:53:31;5.00;;;2.70;;
15202;SDS011;7702;51.046;5.184;2023-02-18T04:55:57;4.30;;;2.73;;
15202;SDS011;7702;51.046;5.184;2023-02-18T04:58:23;3.60;;;2.73;;
15202;SDS011;7702;51.046;5.184;2023-02-18T05:00:49;2.67;;;2.30;;
15202;SDS011;7702;51.046;5.184;2023-02-18T05:03:15;3.00;;;2.70;;
15202;SDS011;7702;51.046;5.184;2023-02-18T05:05:41;3.37;;;2.63;;
15202;SDS011;7702;51.046;5.184;2023-02-18T05:08:06;3.00;;;2.50;;
15202;SDS011;7702;51.046;5.184;2023-02-18T05:10:33;2.17;;;1.97;;
15202;SDS011;7702;51.046;5.184;2023-02-18T05:12:59;3.57;;;2.50;;
15202;SDS011;7702;51.046;5.184;2023-02-18T05:15:25;3.23;;;1.77;;
15202;SDS011;7702;51.046;5.184;2023-02-18T05:17:51;1.80;;;1.70;;
15202;SDS011;7702;51.046;5.184;2023-02-18T05:20:17;2.40;;;2.20;;
15202;SDS011;7702;51.046;5.184;2023-02-18T05:22:42;3.90;;;1.73;;
15202;SDS011;7702;51.046;5.184;2023-02-18T05:25:08;2.50;;;2.00;;
15202;SDS011;7702;51.046;5.184;2023-02-18T05:27:34;3.63;;;2.30;;
15202;SDS011;7702;51.046;5.184;2023-02-18T05:30:00;3.30;;;2.20;;
15202;SDS011;7702;51.046;5.184;2023-02-18T05:32:25;12.27;;;2.70;;
15202;SDS011;7702;51.046;5.184;2023-02-18T05:34:51;2.80;;;2.33;;
15202;SDS011;7702;51.046;5.184;2023-02-18T05:37:17;3.70;;;2.93;;
15202;SDS011;7702;51.046;5.184;2023-02-18T05:39:43;4.33;;;3.13;;
15202;SDS011;7702;51.046;5.184;2023-02-18T05:42:09;3.57;;;2.53;;
15202;SDS011;7702;51.046;5.184;2023-02-18T05:44:35;3.90;;;3.07;;
15202;SDS011;7702;51.046;5.184;2023-02-18T05:47:05;3.83;;;2.90;;
15202;SDS011;7702;51.046;5.184;2023-02-18T05:49:33;4.63;;;2.97;;
15202;SDS011;7702;51.046;5.184;2023-02-18T05:52:00;4.03;;;2.50;;
15202;SDS011;7702;51.046;5.184;2023-02-18T05:54:26;6.73;;;3.30;;
15202;SDS011;7702;51.046;5.184;2023-02-18T05:56:52;5.47;;;3.67;;
15202;SDS011;7702;51.046;5.184;2023-02-18T05:59:19;4.93;;;3.20;;
15202;SDS011;7702;51.046;5.184;2023-02-18T06:01:45;4.90;;;3.23;;
15202;SDS011;7702;51.046;5.184;2023-02-18T06:04:11;4.47;;;3.20;;
15202;SDS011;7702;51.046;5.184;2023-02-18T06:06:37;5.63;;;4.00;;
15202;SDS011;7702;51.046;5.184;2023-02-18T06:09:03;6.80;;;3.33;;
15202;SDS011;7702;51.046;5.184;2023-02-18T06:11:30;4.63;;;3.70;;
15202;SDS011;7702;51.046;5.184;2023-02-18T06:13:56;5.50;;;3.77;;
15202;SDS011;7702;51.046;5.184;2023-02-18T06:16:22;5.53;;;4.47;;
15202;SDS011;7702;51.046;5.184;2023-02-18T06:18:48;7.57;;;3.83;;
15202;SDS011;7702;51.046;5.184;2023-02-18T06:21:13;4.37;;;3.03;;
15202;SDS011;7702;51.046;5.184;2023-02-18T06:23:39;2.87;;;2.30;;
15202;SDS011;7702;51.046;5.184;2023-02-18T06:26:05;4.40;;;2.10;;
15202;SDS011;7702;51.046;5.184;2023-02-18T06:28:31;4.67;;;1.90;;
15202;SDS011;7702;51.046;5.184;2023-02-18T06:30:57;1.60;;;1.33;;
15202;SDS011;7702;51.046;5.184;2023-02-18T06:33:23;2.23;;;1.80;;
15202;SDS011;7702;51.046;5.184;2023-02-18T06:35:53;1.67;;;1.30;;
15202;SDS011;7702;51.046;5.184;2023-02-18T06:38:33;2.63;;;1.67;;
15202;SDS011;7702;51.046;5.184;2023-02-18T06:41:00;3.57;;;1.20;;
15202;SDS011;7702;51.046;5.184;2023-02-18T06:43:26;1.77;;;1.27;;
15202;SDS011;7702;51.046;5.184;2023-02-18T06:45:51;2.90;;;1.80;;
15202;SDS011;7702;51.046;5.184;2023-02-18T06:48:17;6.40;;;1.80;;
15202;SDS011;7702;51.046;5.184;2023-02-18T06:50:43;2.47;;;2.20;;
15202;SDS011;7702;51.046;5.184;2023-02-18T06:53:10;4.80;;;1.77;;
15202;SDS011;7702;51.046;5.184;2023-02-18T06:55:36;4.20;;;2.10;;
15202;SDS011;7702;51.046;5.184;2023-02-18T06:58:03;6.00;;;2.40;;
15202;SDS011;7702;51.046;5.184;2023-02-18T07:00:29;3.77;;;1.97;;
15202;SDS011;7702;51.046;5.184;2023-02-18T07:02:55;5.63;;;1.80;;
15202;SDS011;7702;51.046;5.184;2023-02-18T07:05:20;9.13;;;2.70;;
15202;SDS011;7702;51.046;5.184;2023-02-18T07:07:46;6.97;;;2.30;;
15202;SDS011;7702;51.046;5.184;2023-02-18T07:10:13;4.80;;;2.47;;
15202;SDS011;7702;51.046;5.184;2023-02-18T07:12:38;9.17;;;2.57;;
15202;SDS011;7702;51.046;5.184;2023-02-18T07:15:04;6.50;;;2.43;;
15202;SDS011;7702;51.046;5.184;2023-02-18T07:17:30;6.60;;;2.60;;
15202;SDS011;7702;51.046;5.184;2023-02-18T07:19:56;9.63;;;3.20;;
15202;SDS011;7702;51.046;5.184;2023-02-18T07:22:21;8.73;;;2.67;;
15202;SDS011;7702;51.046;5.184;2023-02-18T07:24:50;9.23;;;2.40;;
15202;SDS011;7702;51.046;5.184;2023-02-18T07:27:19;9.53;;;2.80;;
15202;SDS011;7702;51.046;5.184;2023-02-18T07:29:46;8.23;;;2.33;;
15202;SDS011;7702;51.046;5.184;2023-02-18T07:32:12;9.67;;;2.80;;
15202;SDS011;7702;51.046;5.184;2023-02-18T07:34:38;11.37;;;2.50;;
15202;SDS011;7702;51.046;5.184;2023-02-18T07:37:04;10.53;;;3.27;;
15202;SDS011;7702;51.046;5.184;2023-02-18T07:39:33;7.80;;;2.33;;
15202;SDS011;7702;51.046;5.184;2023-02-18T07:42:01;8.23;;;2.43;;
15202;SDS011;7702;51.046;5.184;2023-02-18T07:44:27;11.63;;;2.57;;
15202;SDS011;7702;51.046;5.184;2023-02-18T07:46:53;6.13;;;2.43;;
15202;SDS011;7702;51.046;5.184;2023-02-18T07:49:19;9.00;;;1.90;;
15202;SDS011;7702;51.046;5.184;2023-02-18T07:51:48;13.43;;;3.23;;
15202;SDS011;7702;51.046;5.184;2023-02-18T07:54:15;6.53;;;2.00;;
15202;SDS011;7702;51.046;5.184;2023-02-18T07:56:40;9.77;;;2.10;;
15202;SDS011;7702;51.046;5.184;2023-02-18T07:59:07;7.03;;;2.77;;
15202;SDS011;7702;51.046;5.184;2023-02-18T08:01:33;7.27;;;2.20;;
15202;SDS011;7702;51.046;5.184;2023-02-18T08:03:59;5.90;;;2.30;;
15202;SDS011;7702;51.046;5.184;2023-02-18T08:06:32;10.67;;;2.63;;
15202;SDS011;7702;51.046;5.184;2023-02-18T08:09:00;7.57;;;2.10;;
15202;SDS011;7702;51.046;5.184;2023-02-18T08:11:26;7.27;;;2.23;;
15202;SDS011;7702;51.046;5.184;2023-02-18T08:13:52;8.70;;;2.10;;
15202;SDS011;7702;51.046;5.184;2023-02-18T08:16:18;7.97;;;2.00;;
15202;SDS011;7702;51.046;5.184;2023-02-18T08:18:45;9.33;;;2.33;;
15202;SDS011;7702;51.046;5.184;2023-02-18T08:21:12;9.03;;;2.57;;
15202;SDS011;7702;51.046;5.184;2023-02-18T08:23:39;9.33;;;2.50;;
15202;SDS011;7702;51.046;5.184;2023-02-18T08:26:05;9.33;;;2.83;;
15202;SDS011;7702;51.046;5.184;2023-02-18T08:28:31;15.83;;;3.07;;
15202;SDS011;7702;51.046;5.184;2023-02-18T08:30:57;9.80;;;2.70;;
15202;SDS011;7702;51.046;5.184;2023-02-18T08:33:23;7.57;;;4.03;;
15202;SDS011;7702;51.046;5.184;2023-02-18T08:35:50;10.63;;;3.17;;
15202;SDS011;7702;51.046;5.184;2023-02-18T08:38:18;8.17;;;3.10;;
15202;SDS011;7702;51.046;5.184;2023-02-18T08:40:45;8.53;;;2.30;;
15202;SDS011;7702;51.046;5.184;2023-02-18T08:43:11;7.60;;;2.63;;
15202;SDS011;7702;51.046;5.184;2023-02-18T08:45:38;5.90;;;2.63;;
15202;SDS011;7702;51.046;5.184;2023-02-18T08:48:06;11.47;;;2.53;;
15202;SDS011;7702;51.046;5.184;2023-02-18T08:50:33;7.53;;;2.57;;
15202;SDS011;7702;51.046;5.184;2023-02-18T08:53:00;8.43;;;2.20;;
15202;SDS011;7702;51.046;5.184;2023-02-18T08:55:28;7.03;;;2.30;;
15202;SDS011;7702;51.046;5.184;2023-02-18T08:57:57;13.60;;;3.00;;
15202;SDS011;7702;51.046;5.184;2023-02-18T09:00:23;11.10;;;2.53;;
15202;SDS011;7702;51.046;5.184;2023-02-18T09:02:49;10.87;;;2.93;;
15202;SDS011;7702;51.046;5.184;2023-02-18T09:05:15;11.13;;;3.10;;
15202;SDS011;7702;51.046;5.184;2023-02-18T09:07:41;10.23;;;2.23;;
15202;SDS011;7702;51.046;5.184;2023-02-18T09:10:08;8.73;;;2.43;;
15202;SDS011;7702;51.046;5.184;2023-02-18T09:12:34;9.23;;;2.23;;
15202;SDS011;7702;51.046;5.184;2023-02-18T09:15:00;9.97;;;2.30;;
15202;SDS011;7702;51.046;5.184;2023-02-18T09:17:26;6.97;;;2.17;;
15202;SDS011;7702;51.046;5.184;2023-02-18T09:19:52;7.80;;;2.30;;
15202;SDS011;7702;51.046;5.184;2023-02-18T09:22:18;11.20;;;2.37;;
15202;SDS011;7702;51.046;5.184;2023-02-18T09:24:44;12.17;;;3.00;;
15202;SDS011;7702;51.046;5.184;2023-02-18T09:27:10;7.13;;;2.70;;
15202;SDS011;7702;51.046;5.184;2023-02-18T09:29:37;12.47;;;2.50;;
15202;SDS011;7702;51.046;5.184;2023-02-18T09:32:05;9.93;;;2.20;;
15202;SDS011;7702;51.046;5.184;2023-02-18T09:34:31;8.33;;;2.53;;
15202;SDS011;7702;51.046;5.184;2023-02-18T09:36:58;7.00;;;2.20;;
15202;SDS011;7702;51.046;5.184;2023-02-18T09:39:23;6.70;;;2.40;;
15202;SDS011;7702;51.046;5.184;2023-02-18T09:41:50;12.23;;;2.30;;
15202;SDS011;7702;51.046;5.184;2023-02-18T09:44:26;8.10;;;2.17;;
15202;SDS011;7702;51.046;5.184;2023-02-18T09:47:04;6.97;;;1.40;;
15202;SDS011;7702;51.046;5.184;2023-02-18T09:49:43;9.37;;;2.37;;
15202;SDS011;7702;51.046;5.184;2023-02-18T09:52:18;10.20;;;3.03;;
15202;SDS011;7702;51.046;5.184;2023-02-18T09:54:45;7.37;;;4.07;;
15202;SDS011;7702;51.046;5.184;2023-02-18T09:57:23;7.33;;;2.13;;
15202;SDS011;7702;51.046;5.184;2023-02-18T09:59:57;4.80;;;1.60;;
15202;SDS011;7702;51.046;5.184;2023-02-18T10:02:25;4.30;;;1.60;;
15202;SDS011;7702;51.046;5.184;2023-02-18T10:04:52;8.17;;;1.77;;
15202;SDS011;7702;51.046;5.184;2023-02-18T10:07:24;5.17;;;1.63;;
15202;SDS011;7702;51.046;5.184;2023-02-18T10:09:55;5.13;;;1.60;;
15202;SDS011;7702;51.046;5.184;2023-02-18T10:12:26;4.70;;;1.50;;
15202;SDS011;7702;51.046;5.184;2023-02-18T10:14:57;4.17;;;1.30;;
15202;SDS011;7702;51.046;5.184;2023-02-18T10:17:25;11.37;;;2.00;;
15202;SDS011;7702;51.046;5.184;2023-02-18T10:19:54;7.70;;;1.67;;
15202;SDS011;7702;51.046;5.184;2023-02-18T10:22:23;2.30;;;1.40;;
15202;SDS011;7702;51.046;5.184;2023-02-18T10:24:54;4.90;;;1.40;;
15202;SDS011;7702;51.046;5.184;2023-02-18T10:27:25;6.47;;;1.40;;
15202;SDS011;7702;51.046;5.184;2023-02-18T10:32:43;7.90;;;1.80;;
15202;SDS011;7702;51.046;5.184;2023-02-18T10:38:15;4.67;;;1.77;;
15202;SDS011;7702;51.046;5.184;2023-02-18T10:46:21;6.73;;;1.77;;
15202;SDS011;7702;51.046;5.184;2023-02-18T10:52:12;8.30;;;2.10;;
15202;SDS011;7702;51.046;5.184;2023-02-18T10:55:14;5.03;;;1.90;;
15202;SDS011;7702;51.046;5.184;2023-02-18T10:58:00;4.63;;;1.87;;
15202;SDS011;7702;51.046;5.184;2023-02-18T11:00:26;5.50;;;1.90;;
15202;SDS011;7702;51.046;5.184;2023-02-18T11:03:03;5.03;;;1.80;;
15202;SDS011;7702;51.046;5.184;2023-02-18T11:05:41;4.83;;;2.10;;
15202;SDS011;7702;51.046;5.184;2023-02-18T11:08:09;4.77;;;1.70;;
15202;SDS011;7702;51.046;5.184;2023-02-18T11:10:42;16.97;;;9.03;;
15202;SDS011;7702;51.046;5.184;2023-02-18T11:13:09;6.73;;;1.63;;
15202;SDS011;7702;51.046;5.184;2023-02-18T11:15:38;6.03;;;1.90;;
15202;SDS011;7702;51.046;5.184;2023-02-18T11:20:54;5.57;;;2.17;;
15202;SDS011;7702;51.046;5.184;2023-02-18T11:23:21;5.87;;;1.73;;
15202;SDS011;7702;51.046;5.184;2023-02-18T11:25:55;7.50;;;2.80;;
15202;SDS011;7702;51.046;5.184;2023-02-18T11:31:05;6.93;;;2.27;;
15202;SDS011;7702;51.046;5.184;2023-02-18T11:33:33;8.37;;;2.30;;
15202;SDS011;7702;51.046;5.184;2023-02-18T11:36:04;4.43;;;1.70;;
15202;SDS011;7702;51.046;5.184;2023-02-18T11:38:57;7.63;;;2.37;;
15202;SDS011;7702;51.046;5.184;2023-02-18T11:41:35;7.87;;;1.80;;
15202;SDS011;7702;51.046;5.184;2023-02-18T11:44:15;7.43;;;2.03;;
15202;SDS011;7702;51.046;5.184;2023-02-18T11:47:01;5.70;;;1.87;;
15202;SDS011;7702;51.046;5.184;2023-02-18T11:49:30;6.43;;;2.10;;
15202;SDS011;7702;51.046;5.184;2023-02-18T11:52:13;5.37;;;1.63;;
15202;SDS011;7702;51.046;5.184;2023-02-18T11:55:00;9.60;;;1.77;;
15202;SDS011;7702;51.046;5.184;2023-02-18T11:57:32;8.30;;;2.10;;
15202;SDS011;7702;51.046;5.184;2023-02-18T12:00:04;5.80;;;2.07;;
15202;SDS011;7702;51.046;5.184;2023-02-18T12:03:01;8.30;;;2.67;;
15202;SDS011;7702;51.046;5.184;2023-02-18T12:05:32;10.30;;;2.03;;
15202;SDS011;7702;51.046;5.184;2023-02-18T12:08:10;5.90;;;1.77;;
15202;SDS011;7702;51.046;5.184;2023-02-18T12:10:43;7.70;;;1.83;;
15202;SDS011;7702;51.046;5.184;2023-02-18T12:31:36;8.03;;;2.20;;
15202;SDS011;7702;51.046;5.184;2023-02-18T12:39:56;9.17;;;3.50;;
15202;SDS011;7702;51.046;5.184;2023-02-18T12:45:20;4.23;;;2.43;;
15202;SDS011;7702;51.046;5.184;2023-02-18T12:48:26;9.40;;;3.30;;
15202;SDS011;7702;51.046;5.184;2023-02-18T12:51:07;6.70;;;2.30;;
15202;SDS011;7702;51.046;5.184;2023-02-18T13:02:28;7.10;;;2.70;;
15202;SDS011;7702;51.046;5.184;2023-02-18T13:08:29;7.93;;;3.13;;
15202;SDS011;7702;51.046;5.184;2023-02-18T13:16:33;8.93;;;2.90;;
15202;SDS011;7702;51.046;5.184;2023-02-18T13:21:41;9.57;;;2.60;;
15202;SDS011;7702;51.046;5.184;2023-02-18T13:24:10;6.40;;;2.60;;
15202;SDS011;7702;51.046;5.184;2023-02-18T13:26:38;10.57;;;2.97;;
15202;SDS011;7702;51.046;5.184;2023-02-18T13:39:55;8.03;;;3.13;;
15202;SDS011;7702;51.046;5.184;2023-02-18T13:42:32;7.77;;;3.13;;
15202;SDS011;7702;51.046;5.184;2023-02-18T13:45:03;8.30;;;3.13;;
15202;SDS011;7702;51.046;5.184;2023-02-18T13:50:27;9.57;;;3.10;;
15202;SDS011;7702;51.046;5.184;2023-02-18T13:55:33;15.57;;;8.57;;
15202;SDS011;7702;51.046;5.184;2023-02-18T13:58:33;10.37;;;3.63;;
15202;SDS011;7702;51.046;5.184;2023-02-18T14:01:12;9.47;;;3.87;;
15202;SDS011;7702;51.046;5.184;2023-02-18T14:06:22;7.57;;;3.70;;
15202;SDS011;7702;51.046;5.184;2023-02-18T14:09:02;9.37;;;3.37;;
15202;SDS011;7702;51.046;5.184;2023-02-18T14:11:32;6.57;;;3.43;;
15202;SDS011;7702;51.046;5.184;2023-02-18T14:25:19;6.13;;;4.10;;
15202;SDS011;7702;51.046;5.184;2023-02-18T14:28:01;7.73;;;3.50;;
15202;SDS011;7702;51.046;5.184;2023-02-18T14:30:47;7.13;;;3.93;;
15202;SDS011;7702;51.046;5.184;2023-02-18T14:33:15;8.00;;;3.77;;
15202;SDS011;7702;51.046;5.184;2023-02-18T14:44:35;8.47;;;3.90;;
15202;SDS011;7702;51.046;5.184;2023-02-18T14:49:58;8.00;;;4.13;;
15202;SDS011;7702;51.046;5.184;2023-02-18T14:54:53;6.43;;;4.27;;
15202;SDS011;7702;51.046;5.184;2023-02-18T14:57:20;7.07;;;3.90;;
15202;SDS011;7702;51.046;5.184;2023-02-18T14:59:57;8.97;;;3.70;;
15202;SDS011;7702;51.046;5.184;2023-02-18T15:02:25;8.13;;;4.00;;
15202;SDS011;7702;51.046;5.184;2023-02-18T15:04:57;12.50;;;4.73;;
15202;SDS011;7702;51.046;5.184;2023-02-18T15:07:36;7.17;;;4.63;;
15202;SDS011;7702;51.046;5.184;2023-02-18T15:10:02;8.97;;;3.83;;
15202;SDS011;7702;51.046;5.184;2023-02-18T15:12:28;10.73;;;6.07;;
15202;SDS011;7702;51.046;5.184;2023-02-18T15:14:54;11.13;;;4.23;;
15202;SDS011;7702;51.046;5.184;2023-02-18T15:17:26;9.10;;;4.27;;
15202;SDS011;7702;51.046;5.184;2023-02-18T15:19:54;8.10;;;4.37;;
15202;SDS011;7702;51.046;5.184;2023-02-18T15:22:23;7.60;;;4.00;;
15202;SDS011;7702;51.046;5.184;2023-02-18T15:24:51;6.33;;;4.00;;
15202;SDS011;7702;51.046;5.184;2023-02-18T15:27:24;6.73;;;3.60;;
15202;SDS011;7702;51.046;5.184;2023-02-18T15:32:37;5.90;;;4.57;;
15202;SDS011;7702;51.046;5.184;2023-02-18T15:35:13;8.43;;;4.67;;
15202;SDS011;7702;51.046;5.184;2023-02-18T15:37:43;5.50;;;4.40;;
15202;SDS011;7702;51.046;5.184;2023-02-18T15:40:16;6.50;;;3.80;;
15202;SDS011;7702;51.046;5.184;2023-02-18T15:42:44;6.57;;;4.13;;
15202;SDS011;7702;51.046;5.184;2023-02-18T15:45:15;9.00;;;5.10;;
15202;SDS011;7702;51.046;5.184;2023-02-18T15:48:05;6.13;;;4.77;;
15202;SDS011;7702;51.046;5.184;2023-02-18T15:50:33;9.60;;;4.67;;
15202;SDS011;7702;51.046;5.184;2023-02-18T15:53:05;8.67;;;4.30;;
15202;SDS011;7702;51.046;5.184;2023-02-18T15:55:34;12.53;;;4.33;;
15202;SDS011;7702;51.046;5.184;2023-02-18T15:58:13;8.17;;;4.40;;
15202;SDS011;7702;51.046;5.184;2023-02-18T16:00:41;7.20;;;4.30;;
15202;SDS011;7702;51.046;5.184;2023-02-18T16:05:45;5.13;;;4.23;;
15202;SDS011;7702;51.046;5.184;2023-02-18T16:10:42;8.13;;;3.83;;
15202;SDS011;7702;51.046;5.184;2023-02-18T16:13:19;7.37;;;3.93;;
15202;SDS011;7702;51.046;5.184;2023-02-18T16:15:47;7.53;;;4.43;;
15202;SDS011;7702;51.046;5.184;2023-02-18T16:20:55;6.43;;;4.70;;
15202;SDS011;7702;51.046;5.184;2023-02-18T16:23:41;7.23;;;4.27;;
15202;SDS011;7702;51.046;5.184;2023-02-18T16:31:37;4.40;;;4.00;;
15202;SDS011;7702;51.046;5.184;2023-02-18T16:34:03;6.47;;;3.63;;
15202;SDS011;7702;51.046;5.184;2023-02-18T16:36:29;9.30;;;6.93;;
15202;SDS011;7702;51.046;5.184;2023-02-18T16:38:55;10.43;;;4.30;;
15202;SDS011;7702;51.046;5.184;2023-02-18T16:41:23;8.20;;;4.17;;
15202;SDS011;7702;51.046;5.184;2023-02-18T16:43:48;10.83;;;5.17;;
15202;SDS011;7702;51.046;5.184;2023-02-18T16:46:15;8.80;;;5.47;;
15202;SDS011;7702;51.046;5.184;2023-02-18T16:48:44;8.80;;;4.90;;
15202;SDS011;7702;51.046;5.184;2023-02-18T16:51:17;12.63;;;5.67;;
15202;SDS011;7702;51.046;5.184;2023-02-18T16:54:03;7.03;;;4.37;;
15202;SDS011;7702;51.046;5.184;2023-02-18T16:56:30;10.17;;;4.33;;
15202;SDS011;7702;51.046;5.184;2023-02-18T16:58:57;7.03;;;4.17;;
15202;SDS011;7702;51.046;5.184;2023-02-18T17:01:30;8.10;;;4.33;;
15202;SDS011;7702;51.046;5.184;2023-02-18T17:04:02;9.13;;;4.50;;
15202;SDS011;7702;51.046;5.184;2023-02-18T17:06:32;7.80;;;4.33;;
15202;SDS011;7702;51.046;5.184;2023-02-18T17:08:58;9.90;;;5.13;;
15202;SDS011;7702;51.046;5.184;2023-02-18T17:11:25;13.27;;;5.97;;
15202;SDS011;7702;51.046;5.184;2023-02-18T17:13:54;8.70;;;5.50;;
15202;SDS011;7702;51.046;5.184;2023-02-18T17:16:24;9.87;;;4.97;;
15202;SDS011;7702;51.046;5.184;2023-02-18T17:18:50;7.13;;;5.13;;
15202;SDS011;7702;51.046;5.184;2023-02-18T17:21:17;8.33;;;4.83;;
15202;SDS011;7702;51.046;5.184;2023-02-18T17:23:45;8.57;;;4.33;;
15202;SDS011;7702;51.046;5.184;2023-02-18T17:26:23;6.13;;;4.03;;
15202;SDS011;7702;51.046;5.184;2023-02-18T17:28:54;8.13;;;4.70;;
15202;SDS011;7702;51.046;5.184;2023-02-18T17:31:23;12.40;;;5.53;;
15202;SDS011;7702;51.046;5.184;2023-02-18T17:33:50;6.73;;;3.70;;
15202;SDS011;7702;51.046;5.184;2023-02-18T17:36:20;10.70;;;6.13;;
15202;SDS011;7702;51.046;5.184;2023-02-18T17:38:46;6.67;;;4.83;;
15202;SDS011;7702;51.046;5.184;2023-02-18T17:41:13;7.20;;;5.03;;
15202;SDS011;7702;51.046;5.184;2023-02-18T17:43:39;8.13;;;4.67;;
15202;SDS011;7702;51.046;5.184;2023-02-18T17:46:07;7.97;;;5.27;;
15202;SDS011;7702;51.046;5.184;2023-02-18T17:48:36;5.73;;;4.63;;
15202;SDS011;7702;51.046;5.184;2023-02-18T17:51:03;8.63;;;5.40;;
15202;SDS011;7702;51.046;5.184;2023-02-18T17:53:33;6.60;;;4.70;;
15202;SDS011;7702;51.046;5.184;2023-02-18T17:55:59;7.13;;;4.37;;
15202;SDS011;7702;51.046;5.184;2023-02-18T17:58:25;9.20;;;5.20;;
15202;SDS011;7702;51.046;5.184;2023-02-18T18:00:53;5.93;;;4.60;;
15202;SDS011;7702;51.046;5.184;2023-02-18T18:03:19;7.53;;;4.50;;
15202;SDS011;7702;51.046;5.184;2023-02-18T18:05:46;5.20;;;4.40;;
15202;SDS011;7702;51.046;5.184;2023-02-18T18:08:13;9.00;;;5.77;;
15202;SDS011;7702;51.046;5.184;2023-02-18T18:10:51;6.37;;;4.83;;